19e Meeting National de Saint-Dizier

Nationale

SAINT-DIZIER

Du Vendredi 23 Octobre 2009 au Dimanche 25 Octobre 2009

Bassin de 25m

50 Brasse Messieurs

Séries

Nom Année Club Pays Temps Points Niv.
1 LISOGOR Oleg 1979 UKRAINE UKR 0:29:28 1270
2 BRIDIER Colin 1990 LAGARDERE PARIS RACING FRA 0:29:67 1248
3 SUDRIE Thibaut 1988 LILLE MÉTROPOLE NATATION FRA 0:29:82 1239
4 SOMMARIPA Marco 1984 ITALIE ITA 0:29:90 1235
5 MOUEDDENE Eddie 1990 ALLIANCE DIJON NATATION FRA 0:30:01 1228
6 HAIDUKEVITCH Dzeanis 1990 BIÉLORUSSIE BLR 0:30:02 1228
7 ALEKSANROVICH Hleb 1991 BIÉLORUSSIE BLR 0:30:06 1225
8 RICHARD Christophe 1983 AAS SARCELLES NATATION 95 FRA 0:30:45 1203
9 VALAKHANOVICH Yauheni 1991 BIÉLORUSSIE BLR 0:30:64 1193
10 BERNARD Romain 1985 STADE BÉTHUNE PÉLICAN CLUB FRA 0:30:77 1185
11 KUCINSKAS Mindaugas 1991 LITUANIE LTU 0:30:84 1181
12 APARYN Valéry 1989 BIÉLORUSSIE BLR 0:30:85 1181
13 FORTIN Kenny 1989 STADE BÉTHUNE PÉLICAN CLUB FRA 0:30:92 1177
14 OSIPOV Alexandr 1989 OUZBÉKISTAN UZB 0:31:13 1165
15 BLAQUE Boris 1979 SNM BAR-SUR-AUBE FRA 0:31:60 1139
16 MARKOWSKI Kacper 1993 POLOGNE POL 0:31:75 1131
17 ERBA Benjamin 1994 CHARLEVILLE-MÉZIÈRES NATATION FRA 0:32:00 1117
18 BAROIS Quentin 1992 FRANCE FRA 0:32:04 1115
19 KAROLIK Raman 1995 BIÉLORUSSIE BLR 0:32:12 1111
20 HERMAND Damien 1992 CO SAINT-DIZIER NATATION FRA 0:32:14 1110
21 VAUTHIER Matthias 1985 SUISSE SUI 0:32:16 1109
22 DALL' AGLIO Mattia 1993 ITALIE ITA 0:32:20 1106
23 BONILAURI Augusto 1993 ITALIE ITA 0:32:20 1106
24 HERMAND Thomas 1990 CO SAINT-DIZIER NATATION FRA 0:32:20 1106
25 RIBAUD Jérôme 1992 CHASSIEU NATATION FRA 0:32:42 1094
26 NEGRELLI Alessio 1993 ITALIE ITA 0:32:77 1076
27 GORSKI Witosz 1994 POLOGNE POL 0:33:14 1056
28 ATTAR Salim 1986 ASPTT NANCY FRA 0:33:20 1053
29 BERETTA Matteo 1993 ITALIE ITA 0:33:80 1021
30 VOITSIK Yaraslau 1995 BIÉLORUSSIE BLR 0:33:85 1019
31 DENIS Romain 1993 RACING CLUB ARRAS FRA 0:34:20 1001
32 CABO-HURLE Kevin 1993 RACING CLUB ARRAS FRA 0:34:56 982

Finale A

Nom Année Club Pays Temps Points Niv.
1 LISOGOR Oleg 1979 UKRAINE UKR 0:27:87 1354
2 MOUEDDENE Eddie 1990 ALLIANCE DIJON NATATION FRA 0:28:78 1300
3 SUDRIE Thibaut 1988 LILLE MÉTROPOLE NATATION FRA 0:29:42 1262
4 BRIDIER Colin 1990 LAGARDERE PARIS RACING FRA 0:29:62 1251
5 HAIDUKEVITCH Dzeanis 1990 BIÉLORUSSIE BLR 0:29:62 1251
6 SOMMARIPA Marco 1984 ITALIE ITA 0:29:72 1245
7 ALEKSANROVICH Hleb 1991 BIÉLORUSSIE BLR 0:29:77 1242
8 RICHARD Christophe 1983 AAS SARCELLES NATATION 95 FRA 0:30:06 1225